Tiempo atmosférico en la estación meteorológica de Soria, Soria (1082 m.)



Fecha
DESCASC
Temp. máxima en grados centígrados (hora)
DESCASC
Temp. mínima en grados centígrados (hora)
DESCASC
Temp. media en grados centígrados
DESCASC
Racha de viento máxima en m/sg (hora)
DESCASC
Velocidad máxima media en intervalos de 10 minutos(hora)
DESCASC
Precipitaciones diarias en mm
DESCASC
Precipitaciones de 00:00 a 06:00 en mm
DESCASC
Precipitaciones de 06:00 a 12:00 en mm
DESCASC
Precipitaciones de 12:00 a 18:00 en mm
DESCASC
Precipitaciones de 18:00 a 24:00 en mm
DESCASC
18-10-2019 17.4 (16:50) 10.9 (00:00) 14.1 8.89 (15:00) 5 (14:20) 6.8 4.2 2.6 0 0
19-10-2019 15 (16:40) 9.5 (00:00) 12.3 11.11 (17:50) 5.83 (17:50) 4.6 0 0 0 4.6
20-10-2019 11.3 (12:20) 6.2 (00:00) 8.8 9.72 (04:10) 4.72 (11:50) 9 7.6 0 0.6 0.8
21-10-2019 13.4 (16:30) 1.5 (00:00) 7.4 5.56 (18:40) 2.78 (15:20) 0 0 0 0 0
22-10-2019 7.9 (11:20) 2.4 (03:00) 5.2 9.72 (18:00) 4.72 (16:20) 2 0 0 2 0
23-10-2019 9.7 (12:20) 6.3 (00:00) 8 6.11 (03:00) 3.61 (16:10) 10.2 2.6 7 0.2 0.4
24-10-2019 13.2 (16:30) 5.7 (00:00) 9.4 11.11 (17:00) 6.39 (17:00) 1 1 0 0 0
25-10-2019 21.1 (16:30) 7 (00:00) 14.1 6.39 (16:20) 3.61 (17:10) 0 0 0 0 0
26-10-2019 22.2 (16:50) 3.6 (00:00) 12.9 4.72 (16:40) 2.5 (16:40) 0 0 0 0 0
27-10-2019 21.6 (14:20) 4.6 (00:00) 13.1 3.61 (14:20) 1.94 (14:40) 0 0 0 0 0
28-10-2019 22.4 (14:40) 9.5 (00:00) 15.9 6.11 (15:10) 3.33 (15:00) 0 0 0 0 0
29-10-2019 19.5 (14:10) 6.7 (00:00) 13.1 7.78 (14:30) 4.17 (15:30) 0 0 0 0 0
30-10-2019 15.2 (13:50) 5.6 (00:00) 10.4 7.78 (15:40) 4.17 (17:50) 0 0 0 0 0
31-10-2019 19.6 (14:40) 11.8 (07:30) 15.7 9.17 (15:30) 4.72 (15:30) 0 0 0 0 0
01-11-2019 16.3 (11:20) 12.9 (00:00) 14.6 11.39 (15:10) 6.11 (18:40) 3.6 0 0 1 2.6
02-11-2019 15.3 (15:40) 10.4 (00:00) 12.8 15 (20:30) 6.94 (20:30) 3.8 1.2 2.2 0.2 0.2
03-11-2019 12.4 (16:10) 7.1 (00:00) 9.7 20 (04:00) 10 (04:30) 2.8 0.4 2.2 0 0.2
04-11-2019 13.2 (15:10) 6.6 (00:00) 9.9 17.22 (11:40) 9.17 (12:00) 8.6 1 0.2 7.4 0
05-11-2019 9 (16:00) 4.4 (00:00) 6.7 15 (08:30) 7.5 (04:00) 1.6 0 0.2 1.4 0
06-11-2019 11.2 (13:40) 4 (00:00) 7.6 10 (05:30) 5.28 (14:20) 0 0 0 0 0
07-11-2019 9.4 (13:50) 2.3 (00:00) 5.8 13.06 (15:50) 6.67 (14:50) 2.6 2 0 0.6 0
08-11-2019 6.9 (17:10) 1 (05:10) 4 14.72 (14:30) 7.78 (10:20) 0 0 0 0 0
09-11-2019 6.7 (22:20) 2.1 (00:00) 4.4 12.5 (12:10) 7.22 (11:10) 4.8 0 0 0 4.8
10-11-2019 5.5 (16:10) 0 (00:00) 2.8 8.06 (13:50) 4.72 (08:40) 0.6 0 0.2 0.4 0
11-11-2019 9.4 (14:40) 1.3 (01:50) 5.3 9.17 (12:20) 5 (14:10) 0.2 0 0 0 0.2
12-11-2019 10.7 (14:40) 2.3 (00:00) 6.5 9.72 (19:30) 5.28 (19:40) 0.4 0 0 0 0.4
13-11-2019 13.6 (15:10) 5.2 (00:00) 9.4 13.33 (23:59) 7.22 (23:59) 5.8 5.8 0 0 0
14-11-2019 7.2 (00:20) 0.4 (00:00) 3.8 15.28 (01:00) 8.06 (03:30) 8 2.8 2.6 0.8 1.8
15-11-2019 4.8 (16:10) -0.2 (00:00) 2.3 10.28 (14:50) 5.83 (14:00) 0 0 0 0 0
16-11-2019 3.8 (14:50) -2.8 (-00:0) 0.5 11.67 (14:30) 5.83 (14:50) 0 0 0 0 0

Gráficas

Temp. máximas Temp. mínimas Temp. medias Precipitaciones Rachas de viento máximas Velocidades máximas media en intervalos de 10 minutos

Datos horarios

Fecha y hora oficial Temperatura (ºC) Velocidad del viento (km/h) Dirección del viento Racha (km/h) Dirección de racha Precipitación (mm) Presión (hPa) Tendencia (hPa) Humedad (%)
2019-11-16 23:00:00 1.4 13 Oeste 27 Sudoeste 0 890.1 0.2 82
2019-11-16 22:00:00 2.3 13 Oeste 24 Oeste 0 890.2 0.9 79
2019-11-16 21:00:00 3.3 10 Oeste 27 Oeste 0 890.2 0.9 78
2019-11-16 20:00:00 3.2 14 Oeste 40 Oeste 0 889.9 0.6 78
2019-11-16 19:00:00 3.3 21 Oeste 36 Oeste 0 889.3 -0.1 80
2019-11-16 18:00:00 2.8 8 Oeste 19 Oeste 0 889.3 0.3 85
2019-11-16 17:00:00 3.3 11 Oeste 25 Sudoeste 0 889.3 0.5 83
2019-11-16 16:00:00 3 13 Oeste 31 Oeste 0 889.4 0.2 80
2019-11-16 15:00:00 3.5 15 Oeste 42 Oeste 0 889 -0.4 74
2019-11-16 14:00:00 2.7 16 Oeste 29 Oeste 0 888.8 -0.6 79
2019-11-16 13:00:00 1.7 14 Oeste 26 Oeste 0 889.2 0.4 84
2019-11-16 12:00:00 1.9 13 Oeste 25 Oeste 0 889.4 1.4 82
2019-11-16 11:00:00 2 17 Oeste 28 Oeste 0 889.4 1.8 83
2019-11-16 10:00:00 0.9 5 Noroeste 10 Noroeste 0 888.8 1.8 88
2019-11-16 09:00:00 -1.7 4 Sudoeste 12 Oeste 0 888 1.9 95
2019-11-16 08:00:00 -2.7 3 Sudoeste 12 Oeste 0 887.6 1.7 92
2019-11-16 07:00:00 -2.1 7 Oeste 14 Oeste 0 887 1.4 92
2019-11-16 06:00:00 -2.4 5 Oeste 9 Oeste 0 886.1 1.2 94
2019-11-16 05:00:00 -2.3 4 Oeste 8 Oeste 0 885.9 1.6 96
2019-11-16 04:00:00 -1.2 0 Calma 9 Sudoeste 0 885.6 1.7 96
2019-11-16 03:00:00 -0.7 3 Sudeste 11 Norte 0 884.9 1.4 95
2019-11-16 02:00:00 -0.1 4 Norte 10 Noroeste 0 884.3 1.1 95
2019-11-16 01:00:00 0.3 5 Norte 14 Noroeste 0 883.9 1.3 95
2019-11-16 00:00:00 1.1 3 Norte 9 Noroeste 0 883.5 1.6 92
2019-11-15 23:00:00 1.8 4 Norte 15 Oeste 0 883.2 1.8 91
2019-11-15 22:00:00 1.9 6 Noroeste 15 Noroeste 0 882.6 1.8 90
2019-11-15 21:00:00 1.6 3 Oeste 13 Norte 0 881.9 1.4 89
2019-11-15 20:00:00 1.9 2 Norte 17 Noroeste 0 881.4 1.4 90
2019-11-15 19:00:00 2.4 13 Oeste 25 Oeste 0 880.8 1 86
2019-11-15 18:00:00 3.2 14 Noroeste 28 Sudoeste 0 880.5 0.9 77
2019-11-15 17:00:00 3.8 14 Oeste 27 Norte 0 880 0.5 77
2019-11-15 16:00:00 4.5 15 Noroeste 33 Oeste 0 879.8 0.1 75
2019-11-15 15:00:00 3.3 16 Noroeste 37 Oeste 0 879.6 0.1 79
2019-11-15 14:00:00 3.9 21 Oeste 35 Oeste 0 879.5 -0.1 78
2019-11-15 13:00:00 3.7 15 Oeste 35 Oeste 0 879.7 0.1 83
2019-11-15 12:00:00 2.3 15 Oeste 31 Oeste 0 879.5 0.4 90
2019-11-15 11:00:00 1.9 15 Oeste 27 Oeste 0 879.6 1.2 93
2019-11-15 10:00:00 1.2 14 Oeste 22 Oeste 0 879.6 1.7 92
2019-11-15 09:00:00 0.8 12 Oeste 22 Sudoeste 0 879.1 1.1 91
2019-11-15 08:00:00 0.8 12 Oeste 25 Oeste 0 878.4 0.4 92
2019-11-15 07:00:00 0.5 9 Oeste 19 Oeste 0 877.9 -0.4 94
2019-11-15 06:00:00 0.4 9 Oeste 27 Oeste 0 878 0 91
2019-11-15 05:00:00 0.4 10 Oeste 27 Oeste 0 878 0.1 90
2019-11-15 04:00:00 0.2 10 Oeste 30 Noroeste 0 878.3 0.9 86
2019-11-15 03:00:00 0 12 Noroeste 27 Oeste 0 878 0.8 87
2019-11-15 02:00:00 0.2 9 Oeste 23 Oeste 0 877.9 1.1 89
2019-11-15 01:00:00 0.5 7 Oeste 18 Oeste 0 877.4 1.2 90
2019-11-15 00:00:00 0.6 7 Oeste 23 Oeste 0 877.2 1.5 94
2019-11-14 23:00:00 0.7 10 Noroeste 21 Oeste 0 876.8 1.5 91
2019-11-14 22:00:00 0.9 8 Noroeste 16 Noroeste 0 876.2 1 92
2019-11-14 21:00:00 0.5 10 Oeste 18 Oeste 0 875.7 0.8 95
2019-11-14 20:00:00 0.7 11 Oeste 18 Oeste 0.2 875.3 0.1 95
2019-11-14 19:00:00 0.8 7 Sudoeste 19 Oeste 1.6 875.2 -0.2 97
2019-11-14 18:00:00 1 12 Oeste 29 Sur 0.8 874.9 -0.8 94
2019-11-14 17:00:00 2.1 13 Oeste 40 Sudoeste 0 875.2 -1.1 89
2019-11-14 16:00:00 3.6 18 Oeste 42 Oeste 0 875.4 -2 71
2019-11-14 15:00:00 4.9 18 Oeste 44 Sudoeste 0 875.7 -2.4 61
2019-11-14 14:00:00 4.8 19 Noroeste 43 Oeste 0 876.3 -1.9 66
2019-11-14 13:00:00 3.2 15 Oeste 37 Sudoeste 0 877.4 -1.5 70
2019-11-14 12:00:00 3.6 16 Oeste 38 Oeste 0 878.1 -1 75
2019-11-14 11:00:00 3.5 15 Oeste 33 Oeste 0 878.2 -0.8 85
2019-11-14 10:00:00 2.1 10 Oeste 21 Oeste 0 878.9 -0.4 95
2019-11-14 09:00:00 1.7 7 Oeste 10 Sudoeste 0 879.1 0.1 96
2019-11-14 08:00:00 1.1 3 Sudoeste 9 Oeste 0.6 879 0.4 97
2019-11-14 07:00:00 1.2 3 Norte 36 Oeste 2 879.3 -0.5 95
2019-11-14 06:00:00 3.7 16 Noroeste 45 Oeste 2.6 879 -1.9 86
2019-11-14 05:00:00 5.1 23 Oeste 46 Oeste 0.2 878.6 -3.6 90
2019-11-14 04:00:00 5.7 25 Oeste 52 Oeste 0 879.8 -3.4 84
2019-11-14 03:00:00 6 27 Oeste 49 Sudoeste 0 880.9 -2.8 78
2019-11-14 02:00:00 6.3 24 Oeste 52 Oeste 0 882.2 -2.4 77
2019-11-14 01:00:00 7.1 28 Oeste 55 Oeste 0 883.2 -2.3 74
2019-11-14 00:00:00 7.1 26 Oeste 48 Oeste 0 883.7 -2.3 79
2019-11-13 23:00:00 7.3 18 Oeste 36 Oeste 0 884.6 -2.5 84
2019-11-13 22:00:00 7.1 13 Oeste 29 Sudoeste 0 885.5 -1.8 84
2019-11-13 21:00:00 6.6 9 Sudoeste 19 Sudoeste 0 886 -2 86
2019-11-13 20:00:00 6.8 7 Sudoeste 23 Oeste 0 887.1 -1.1 83
2019-11-13 19:00:00 7.6 12 Sudoeste 31 Oeste 0 887.3 -0.6 78
2019-11-13 18:00:00 8.5 12 Oeste 27 Oeste 0 888 0.1 67
2019-11-13 17:00:00 9.6 11 Oeste 29 Oeste 0 888.2 0.3 59
2019-11-13 16:00:00 12.7 9 Noroeste 20 Noroeste 0 887.9 -0.1 46
2019-11-13 15:00:00 13.4 5 Noroeste 18 Norte 0 887.9 -0.7 43
2019-11-13 14:00:00 11.8 9 Norte 24 Nordeste 0 887.9 0.3 50
2019-11-13 13:00:00 11.9 7 Norte 23 Norte 0 888 1.1 50
2019-11-13 12:00:00 10.8 9 Norte 24 Noroeste 0 888.6 3.3 58
2019-11-13 11:00:00 9.7 7 Norte 24 Noroeste 0 887.6 3.6 64
2019-11-13 10:00:00 7.9 5 Noroeste 20 Noroeste 0 886.9 4.1 79
2019-11-13 09:00:00 5.8 4 Norte 29 Nordeste 0 885.3 3.7 86
2019-11-13 08:00:00 5.9 5 Norte 19 Norte 0 884 2.7 88
2019-11-13 07:00:00 5.9 5 Norte 17 Nordeste 0 882.8 1.1 98
2019-11-13 06:00:00 6.3 3 Nordeste 14 Sudoeste 0.2 881.6 -0.3 98
2019-11-13 05:00:00 6.4 8 Oeste 15 Oeste 1.2 881.3 -1.8 98
2019-11-13 04:00:00 5.9 6 Oeste 17 Oeste 1.6 881.7 -1.9 98
2019-11-13 03:00:00 5.8 9 Sudoeste 17 Sudoeste 2.2 881.9 -2.5 98
2019-11-13 02:00:00 5.4 2 Oeste 11 Sudoeste 0.6 883.1 -2.6 97
2019-11-13 01:00:00 5.4 5 Sudoeste 11 Oeste 0 883.6 -2.7 98
2019-11-13 00:00:00 5.2 6 Sudoeste 17 Oeste 0.2 884.4 -2.7 97
2019-11-12 23:00:00 4.9 10 Oeste 18 Oeste 0 885.7 -1.5 97
2019-11-12 22:00:00 4.8 13 Oeste 27 Oeste 0.2 886.3 -1.6 93
2019-11-12 21:00:00 4.6 18 Oeste 33 Oeste 0 887.1 -1.2 87
2019-11-12 20:00:00 5 19 Oeste 35 Oeste 0 887.2 -1.8 86
2019-11-12 19:00:00 6.1 12 Oeste 32 Oeste 0 887.9 -1.4 79
2019-11-12 18:00:00 6.2 11 Oeste 18 Oeste 0 888.3 -0.9 78
2019-11-12 17:00:00 6.2 8 Sudoeste 29 Sudoeste 0 889 -0.6 79
2019-11-12 16:00:00 7.5 16 Oeste 33 Sudoeste 0 889.3 -1.3 70
2019-11-12 15:00:00 9.8 14 Noroeste 28 Noroeste 0 889.2 -2.1 56
2019-11-12 14:00:00 8.7 10 Noroeste 27 Oeste 0 889.6 -2 61
2019-11-12 13:00:00 8.7 16 Oeste 30 Oeste 0 890.6 -0.9 67
2019-11-12 12:00:00 6.8 14 Oeste 29 Oeste 0 891.3 -0.4 75
2019-11-12 11:00:00 7.3 13 Oeste 23 Oeste 0 891.6 0.2 70
2019-11-12 10:00:00 5.9 8 Oeste 16 Oeste 0 891.5 0.1 73
2019-11-12 09:00:00 3.8 4 Sur 22 Oeste 0 891.7 0.1 84
2019-11-12 08:00:00 3.1 5 Noroeste 20 Noroeste 0 891.4 -0.3 85
2019-11-12 07:00:00 2.3 5 Noroeste 22 Oeste 0 891.4 -0.7 87
2019-11-12 06:00:00 2.5 5 Norte 17 Norte 0 891.6 -0.6 86
2019-11-12 05:00:00 2.6 4 Norte 13 Oeste 0 891.7 -1 83
2019-11-12 04:00:00 2.8 5 Oeste 15 Oeste 0 892.1 -1.4 80
2019-11-12 03:00:00 3.2 4 Noroeste 15 Norte 0 892.2 -1.8 78
2019-11-12 02:00:00 3.7 6 Norte 19 Norte 0 892.7 -1 76
2019-11-12 01:00:00 3.3 4 Norte 8 Norte 0 893.5 -0.3 78
2019-11-12 00:00:00 3.5 2 Norte 12 Oeste 0 894 0.3 78
2019-11-11 23:00:00 4 4 Nordeste 10 Nordeste 0 893.7 0.2 80
2019-11-11 22:00:00 3.9 4 Sudeste 20 Norte 0 893.8 1.1 82
2019-11-11 21:00:00 4 5 Norte 14 Nordeste 0.2 893.7 0.9 84
2019-11-11 20:00:00 4.4 4 Norte 19 Noroeste 0 893.5 0.9 86
2019-11-11 19:00:00 5.2 8 Norte 22 Norte 0 892.7 1 75
2019-11-11 18:00:00 6.1 9 Norte 21 Norte 0 892.8 1.9 72
2019-11-11 17:00:00 7.4 7 Norte 27 Norte 0 892.6 1.6 62
2019-11-11 16:00:00 8.5 10 Noroeste 27 Norte 0 891.7 0.4 66
2019-11-11 15:00:00 9.2 9 Noroeste 28 Oeste 0 890.9 -0.6 72
2019-11-11 14:00:00 8.7 13 Noroeste 28 Noroeste 0 891 -1 74
2019-11-11 13:00:00 6.9 11 Noroeste 33 Oeste 0 891.3 -0.8 81
2019-11-11 12:00:00 5.3 14 Oeste 28 Oeste 0 891.5 -0.1 88
2019-11-11 11:00:00 4.3 15 Oeste 27 Oeste 0 892 0.6 87
2019-11-11 10:00:00 3.5 11 Oeste 26 Oeste 0 892.1 0.5 89
2019-11-11 09:00:00 3.5 9 Oeste 16 Oeste 0 891.6 0.1 87
2019-11-11 08:00:00 3.3 8 Oeste 18 Oeste 0 891.4 -0.3 86
2019-11-11 07:00:00 3 7 Noroeste 25 Noroeste 0 891.6 -0.6 87
2019-11-11 06:00:00 2.5 11 Norte 26 Noroeste 0 891.5 -0.6 91
2019-11-11 05:00:00 2.5 9 Noroeste 23 Oeste 0 891.7 -1.1 91
2019-11-11 04:00:00 2.2 6 Noroeste 25 Norte 0 892.2 -0.9 91
2019-11-11 03:00:00 2.1 8 Noroeste 24 Noroeste 0 892.1 -1.3 91
2019-11-11 02:00:00 1.3 4 Norte 21 Noroeste 0 892.8 0 93
2019-11-11 01:00:00 1.6 9 Noroeste 21 Noroeste 0 893.1 0.7 91
2019-11-11 00:00:00 1.4 9 Oeste 19 Oeste 0 893.4 0.9 92
2019-11-10 23:00:00 0.1 4 Sur 15 Sudoeste 0 892.8 0.1 92
2019-11-10 22:00:00 0.7 5 Sudoeste 14 Oeste 0 892.4 0.2 89
2019-11-10 21:00:00 1.5 3 Noroeste 11 Noroeste 0 892.5 0.8 87
2019-11-10 20:00:00 1.6 4 Sudoeste 18 Nordeste 0 892.7 1.8 86
2019-11-10 19:00:00 2.2 4 Noroeste 22 Nordeste 0 892.2 2 86
2019-11-10 18:00:00 4 5 Norte 21 Noroeste 0 891.7 1.3 73
2019-11-10 17:00:00 5.1 12 Norte 28 Noroeste 0 890.9 0.3 68
2019-11-10 16:00:00 5 5 Noroeste 23 Oeste 0 890.2 -1 82
2019-11-10 15:00:00 5 10 Noroeste 24 Noroeste 0 890.4 -1.1 84
2019-11-10 14:00:00 3 12 Noroeste 29 Noroeste 0.2 890.6 -1 92
2019-11-10 13:00:00 3 10 Noroeste 28 Noroeste 0.2 891.2 -0.2 90
2019-11-10 12:00:00 2.8 10 Oeste 25 Oeste 0 891.5 0.2 91
2019-11-10 11:00:00 1.9 15 Oeste 28 Oeste 0.2 891.6 0.7 93
2019-11-10 10:00:00 1.5 13 Oeste 24 Oeste 0 891.4 0.7 93
2019-11-10 09:00:00 1.2 15 Oeste 26 Oeste 0 891.3 0.7 88
2019-11-10 08:00:00 0.8 15 Oeste 24 Oeste 0 890.9 0.2 86
2019-11-10 07:00:00 0.8 6 Oeste 18 Oeste 0 890.7 -0.1 89
2019-11-10 06:00:00 1.2 10 Oeste 18 Oeste 0 890.6 -0.1 88
2019-11-10 05:00:00 2.1 9 Oeste 17 Oeste 0 890.7 0.1 85
2019-11-10 04:00:00 2.6 6 Noroeste 12 Oeste 0 890.8 0 83
2019-11-10 03:00:00 2.4 4 Este 9 Nordeste 0 890.7 -0.2 92
2019-11-10 02:00:00 2.4 4 Sudoeste 10 Oeste 0 890.6 -0.6 92
2019-11-10 01:00:00 2.1 3 Noroeste 9 Noroeste 0 890.8 0.7 96
2019-11-10 00:00:00 2.5 5 Noroeste 18 Nordeste 3.2 890.9 0.5 94
2019-11-09 23:00:00 3.5 12 Norte 32 Oeste 1.6 891.2 0.2 87
2019-11-09 22:00:00 6.6 14 Oeste 37 Oeste 0 890.1 -1.9 88
2019-11-09 21:00:00 6.2 11 Oeste 26 Oeste 0 890.4 -1.4 92
2019-11-09 20:00:00 5.9 13 Oeste 23 Oeste 0 891 -1.3 94
2019-11-09 19:00:00 5.6 8 Oeste 23 Oeste 0 892 -0.2 96
2019-11-09 18:00:00 5.4 14 Oeste 26 Oeste 0 891.8 -0.5 93
2019-11-09 17:00:00 5.3 8 Oeste 25 Oeste 0 892.3 -0.9 93
2019-11-09 16:00:00 5.5 12 Oeste 32 Oeste 0 892.2 -1.3 89
2019-11-09 15:00:00 4.9 23 Oeste 40 Oeste 0 892.3 -2 86
2019-11-09 14:00:00 4.5 22 Oeste 40 Oeste 0 893.2 -1.6 84
2019-11-09 13:00:00 5 20 Oeste 45 Oeste 0 893.5 -1.5 79
2019-11-09 12:00:00 5.1 23 Oeste 44 Oeste 0 894.3 -0.6 75
2019-11-09 11:00:00 4.3 22 Oeste 41 Oeste 0 894.8 0.3 79
2019-11-09 10:00:00 4 22 Oeste 40 Oeste 0 895 0.3 79
2019-11-09 09:00:00 2.9 12 Oeste 32 Noroeste 0 894.9 0.6 84
2019-11-09 08:00:00 2.2 17 Oeste 36 Oeste 0 894.5 0.2 86
2019-11-09 07:00:00 2.8 19 Oeste 39 Oeste 0 894.7 0.4 83
2019-11-09 06:00:00 2.5 14 Oeste 29 Oeste 0 894.3 0.2 84
2019-11-09 05:00:00 2.5 19 Oeste 33 Oeste 0 894.3 0 83
2019-11-09 04:00:00 2.6 12 Oeste 28 Noroeste 0 894.3 -0.1 84
2019-11-09 03:00:00 2.5 12 Noroeste 33 Noroeste 0 894.1 -0.1 83
2019-11-09 02:00:00 2.4 9 Noroeste 28 Oeste 0 894.3 0.4 83
2019-11-09 01:00:00 2.9 12 Noroeste 32 Noroeste 0 894.4 1 79
2019-11-09 00:00:00 2.4 8 Oeste 26 Oeste 0 894.2 1.3 79
2019-11-08 23:00:00 2.8 15 Oeste 28 Oeste 0 893.9 1.4 77
2019-11-08 22:00:00 3.8 18 Oeste 35 Oeste 0 893.4 1.8 74
2019-11-08 21:00:00 4.2 17 Noroeste 36 Oeste 0 892.9 1.7 73
2019-11-08 20:00:00 4.4 13 Noroeste 27 Oeste 0 892.5 2.1 74
2019-11-08 19:00:00 4.5 9 Noroeste 26 Norte 0 891.6 2 76
2019-11-08 18:00:00 5.7 7 Norte 27 Norte 0 891.2 2.1 75
2019-11-08 17:00:00 6.7 11 Noroeste 30 Nordeste 0 890.4 1.7 72
2019-11-08 16:00:00 5.3 13 Noroeste 43 Oeste 0 889.6 0.6 82
2019-11-08 15:00:00 5.8 18 Noroeste 53 Oeste 0 889.1 0.1 75
2019-11-08 14:00:00 6.4 19 Noroeste 48 Noroeste 0 888.7 -0.6 68
2019-11-08 13:00:00 4.5 20 Noroeste 46 Oeste 0 889 0.6 75
2019-11-08 12:00:00 3.7 18 Oeste 40 Oeste 0 889 1.4 81
2019-11-08 11:00:00 2.6 20 Oeste 50 Oeste 0 889.3 2.3 82
2019-11-08 10:00:00 2.5 20 Oeste 49 Oeste 0 888.4 1.4 82
2019-11-08 09:00:00 2 23 Oeste 46 Oeste 0 887.6 0.7 83
2019-11-08 08:00:00 1.4 22 Oeste 41 Oeste 0 887 0.9 86
2019-11-08 07:00:00 1 11 Oeste 33 Oeste 0 887 0.9 88
2019-11-08 06:00:00 1.2 12 Oeste 36 Oeste 0 886.9 0.8 85
2019-11-08 05:00:00 1.1 16 Oeste 39 Oeste 0 886.1 0.1 83
2019-11-08 04:00:00 1.6 18 Oeste 37 Oeste 0 886.1 0.2 78
2019-11-08 03:00:00 1.7 16 Oeste 40 Oeste 0 886.1 0 78
2019-11-08 02:00:00 1.8 17 Noroeste 32 Oeste 0 886 0 77
2019-11-08 01:00:00 2.1 14 Noroeste 44 Oeste 0 885.9 -0.2 77
2019-11-08 00:00:00 2.5 23 Oeste 47 Oeste 0 886.1 0.4 72
2019-11-07 23:00:00 2.4 19 Oeste 40 Oeste 0 886 -0.2 81
2019-11-07 22:00:00 2.4 13 Oeste 42 Oeste 0 886.1 0.4 82
2019-11-07 21:00:00 2.8 14 Oeste 27 Oeste 0 885.7 -0.5 89
2019-11-07 20:00:00 2.9 14 Oeste 27 Oeste 0 886.2 0.4 91
2019-11-07 19:00:00 3 13 Oeste 31 Oeste 0 885.7 0 89
2019-11-07 18:00:00 3.4 11 Oeste 44 Oeste 0.6 886.2 0.3 90
2019-11-07 17:00:00 5.9 14 Oeste 46 Oeste 0 885.8 -0.4 66
2019-11-07 16:00:00 8.7 21 Oeste 47 Oeste 0 885.7 -1 49
2019-11-07 15:00:00 8.2 19 Oeste 42 Oeste 0 885.9 -1.3 54
2019-11-07 14:00:00 9.2 15 Noroeste 41 Oeste 0 886.2 -0.8 51
2019-11-07 13:00:00 7.3 14 Noroeste 34 Oeste 0 886.7 0.1 62
2019-11-07 12:00:00 7.5 15 Oeste 30 Oeste 0 887.2 1 68
2019-11-07 11:00:00 7.8 14 Oeste 31 Oeste 0 887 1.2 69
2019-11-07 10:00:00 6.9 12 Oeste 25 Oeste 0 886.6 1.1 84
2019-11-07 09:00:00 6.9 10 Oeste 20 Oeste 0 886.2 0.5 88
2019-11-07 08:00:00 7.2 10 Oeste 26 Oeste 0 885.8 -0.1 90
2019-11-07 07:00:00 7.9 11 Oeste 25 Oeste 0 885.5 -0.9 91
2019-11-07 06:00:00 7.9 9 Oeste 26 Sudoeste 0.2 885.7 -1.1 95
2019-11-07 05:00:00 7.6 7 Sudoeste 17 Sudoeste 0.6 885.9 -1.5 99
2019-11-07 04:00:00 7.4 9 Sudoeste 16 Sudoeste 0.6 886.4 -1.7 99
2019-11-07 03:00:00 7.2 9 Oeste 19 Oeste 0.4 886.8 -1.6 98
2019-11-07 02:00:00 6.9 13 Oeste 23 Oeste 0.2 887.4 -1.4 98
2019-11-07 01:00:00 6.7 15 Oeste 28 Oeste 0 888.1 -1.3 97
2019-11-07 00:00:00 6.7 19 Oeste 33 Oeste 0 888.4 -1.1 96
2019-11-06 23:00:00 6.8 10 Oeste 27 Oeste 0 888.8 -1 94
2019-11-06 22:00:00 6.9 13 Oeste 30 Oeste 0 889.4 -0.7 92
2019-11-06 21:00:00 6.8 14 Oeste 28 Oeste 0 889.5 -0.5 91
2019-11-06 20:00:00 7.2 18 Oeste 34 Oeste 0 889.8 -0.2 85
2019-11-06 19:00:00 7.8 10 Oeste 26 Oeste 0 890.1 -0.3 76
2019-11-06 18:00:00 8.2 9 Oeste 27 Oeste 0 890 -0.7 68
2019-11-06 17:00:00 9.3 11 Oeste 27 Oeste 0 890 -1.1 67
2019-11-06 16:00:00 9.3 10 Noroeste 28 Sudoeste 0 890.4 -1.1 64
2019-11-06 15:00:00 10.6 15 Oeste 36 Oeste 0 890.7 -1.3 58
2019-11-06 14:00:00 10.7 16 Oeste 33 Oeste 0 891.1 -1.1 59
2019-11-06 13:00:00 9.9 15 Oeste 31 Oeste 0 891.5 -0.4 65
2019-11-06 12:00:00 8.5 13 Noroeste 29 Oeste 0 892 0.2 68
2019-11-06 11:00:00 7 13 Oeste 28 Oeste 0 892.2 1 76
2019-11-06 10:00:00 5.5 13 Noroeste 27 Oeste 0 891.9 1.3 82
2019-11-06 09:00:00 5 13 Noroeste 27 Oeste 0 891.8 1.6 82
2019-11-06 08:00:00 4.4 14 Noroeste 25 Oeste 0 891.2 0.9 85
2019-11-06 07:00:00 4 8 Noroeste 32 Noroeste 0 890.6 0.3 87
2019-11-06 06:00:00 4.7 14 Noroeste 36 Oeste 0 890.2 -0.3 83
2019-11-06 05:00:00 4.5 16 Oeste 35 Oeste 0 890.3 0 86
2019-11-06 04:00:00 4.8 15 Noroeste 32 Noroeste 0 890.3 -0.1 85
2019-11-06 03:00:00 4.6 17 Oeste 31 Noroeste 0 890.5 0.5 86
2019-11-06 02:00:00 5.2 15 Noroeste 35 Noroeste 0 890.3 0.7 81
2019-11-06 01:00:00 4.6 15 Oeste 32 Noroeste 0 890.4 1.3 87
2019-11-06 00:00:00 5 11 Oeste 26 Noroeste 0 890 1.4 85
2019-11-05 23:00:00 5.7 14 Oeste 33 Noroeste 0 889.6 1.5 81
2019-11-05 22:00:00 5.9 14 Noroeste 32 Noroeste 0 889.1 1.5 81
2019-11-05 21:00:00 6.1 14 Noroeste 31 Noroeste 0 888.6 1.9 80
2019-11-05 20:00:00 6.3 19 Noroeste 38 Oeste 0 888.1 1.9 82
2019-11-05 19:00:00 6.5 15 Oeste 32 Oeste 0 887.6 2.1 81
2019-11-05 18:00:00 7.1 14 Noroeste 36 Oeste 0 886.7 1.1 79
2019-11-05 17:00:00 8.6 17 Noroeste 41 Oeste 0 886.2 0.6 74
2019-11-05 16:00:00 8.9 20 Oeste 37 Oeste 0 885.5 -0.2 75
2019-11-05 15:00:00 7.4 15 Noroeste 36 Oeste 1 885.6 -0.4 84
2019-11-05 14:00:00 7.3 13 Oeste 34 Oeste 0.4 885.6 -0.1 90
2019-11-05 13:00:00 6.7 17 Oeste 36 Oeste 0 885.7 0.4 89
2019-11-05 12:00:00 5.9 19 Oeste 38 Sudoeste 0.2 886 1.3 89
2019-11-05 11:00:00 5.5 18 Oeste 43 Oeste 0 885.7 1.6 88
2019-11-05 10:00:00 5.2 18 Oeste 49 Oeste 0 885.3 1.9 85
2019-11-05 09:00:00 4.9 17 Oeste 54 Oeste 0 884.7 1.5 85
2019-11-05 08:00:00 4.8 25 Oeste 48 Oeste 0 884.1 1.5 84
2019-11-05 07:00:00 5.1 16 Oeste 33 Oeste 0 883.4 0.7 84
2019-11-05 06:00:00 4.6 19 Oeste 37 Oeste 0 883.2 -0.1 89
2019-11-05 05:00:00 4.6 18 Oeste 48 Oeste 0 882.6 -0.8 88
2019-11-05 04:00:00 5.1 27 Oeste 46 Oeste 0 882.7 -0.8 84
2019-11-05 03:00:00 5.6 16 Oeste 35 Oeste 0 883.3 0.1 83
2019-11-05 02:00:00 5.9 18 Oeste 35 Oeste 0 883.4 -0.1 82
2019-11-05 01:00:00 6.3 15 Oeste 42 Noroeste 0 883.5 0.2 86
2019-11-05 00:00:00 6.7 20 Oeste 43 Noroeste 0 883.2 -0.2 78
2019-11-04 23:00:00 7.4 19 Oeste 43 Oeste 0 883.5 0.1 77
2019-11-04 22:00:00 8.2 16 Oeste 41 Oeste 0 883.3 0.4 81
2019-11-04 21:00:00 8.4 19 Oeste 45 Oeste 0 883.4 0.6 80
2019-11-04 20:00:00 9.2 17 Oeste 37 Oeste 0 883.4 1 87
2019-11-04 19:00:00 9.9 23 Oeste 48 Oeste 0 882.9 0 83
2019-11-04 18:00:00 10.6 12 Noroeste 34 Oeste 1.6 882.8 -0.1 92
2019-11-04 17:00:00 11 16 Oeste 38 Oeste 3.4 882.4 -1.3 93
2019-11-04 16:00:00 11.3 20 Oeste 50 Oeste 2.4 882.9 -1.5 92
2019-11-04 15:00:00 13.1 27 Oeste 54 Sudoeste 0 882.9 -1.8 79
2019-11-04 14:00:00 12.2 19 Oeste 47 Oeste 0 883.7 -1.4 83
2019-11-04 13:00:00 12.4 29 Oeste 59 Oeste 0 884.4 -1.1 81
2019-11-04 12:00:00 11.3 33 Oeste 62 Oeste 0 884.7 -0.9 85
2019-11-04 11:00:00 10.6 26 Oeste 56 Oeste 0 885.1 -0.3 87
2019-11-04 10:00:00 9.9 32 Oeste 51 Sudoeste 0.2 885.5 -0.2 89
2019-11-04 09:00:00 9.9 27 Oeste 52 Sudoeste 0 885.6 -0.7 88
2019-11-04 08:00:00 9.6 24 Oeste 44 Oeste 0 885.4 -0.7 93
2019-11-04 07:00:00 9.6 19 Oeste 40 Oeste 0 885.7 -0.6 89
2019-11-04 06:00:00 9.9 16 Oeste 39 Sudoeste 0 886.3 -0.2 86
2019-11-04 05:00:00 9.9 16 Oeste 48 Noroeste 0 886.1 -0.6 87
2019-11-04 04:00:00 10.3 23 Oeste 54 Oeste 0.2 886.3 -0.5 90
2019-11-04 03:00:00 10.3 21 Oeste 45 Sudoeste 0.4 886.5 -0.6 95
2019-11-04 02:00:00 10 20 Oeste 42 Oeste 0.2 886.7 -1 96
2019-11-04 01:00:00 9.6 21 Oeste 37 Oeste 0.2 886.8 -1.1 96
2019-11-04 00:00:00 9.1 12 Oeste 23 Oeste 0.2 887.1 -0.3 97
2019-11-03 23:00:00 8.6 8 Sudoeste 26 Oeste 0 887.7 0.7 95
2019-11-03 22:00:00 9.2 10 Oeste 52 Oeste 0 887.9 0.8 83
2019-11-03 21:00:00 9.2 29 Oeste 57 Oeste 0 887.4 1.6 77
2019-11-03 20:00:00 9.1 13 Oeste 32 Oeste 0 887 1.5 73
2019-11-03 19:00:00 9.4 6 Noroeste 35 Noroeste 0 887.1 1.9 71
2019-11-03 18:00:00 9.8 17 Oeste 47 Oeste 0 885.8 1 68
2019-11-03 17:00:00 11.2 23 Oeste 43 Oeste 0 885.5 1.2 61
2019-11-03 16:00:00 12.1 13 Noroeste 50 Noroeste 0 885.2 1.3 52
2019-11-03 15:00:00 10.7 23 Oeste 51 Oeste 0 884.8 1.1 55
2019-11-03 14:00:00 10.5 23 Oeste 46 Oeste 0 884.3 2.1 52
2019-11-03 13:00:00 10.8 17 Noroeste 50 Oeste 0 883.9 1.8 55
2019-11-03 12:00:00 9.3 21 Oeste 51 Oeste 0 883.7 3.3 65
2019-11-03 11:00:00 9 26 Oeste 53 Oeste 0 882.2 3.7 69
2019-11-03 10:00:00 8.3 17 Noroeste 45 Oeste 0 882.1 5.1 75
2019-11-03 09:00:00 7.6 21 Noroeste 48 Norte 0 880.4 4.7 78
2019-11-03 08:00:00 7.3 17 Noroeste 57 Oeste 0 878.5 3.1 83
2019-11-03 07:00:00 9.7 18 Noroeste 54 Norte 2.2 877 0.7 94
2019-11-03 06:00:00 9.6 27 Oeste 66 Noroeste 0.2 875.7 -2.2 94
2019-11-03 05:00:00 9.2 33 Oeste 68 Sudoeste 0.2 875.4 -3.8 94
2019-11-03 04:00:00 9.1 32 Oeste 72 Oeste 0 876.3 -3.7 92
2019-11-03 03:00:00 9 29 Oeste 54 Oeste 0 877.9 -2.8 90
2019-11-03 02:00:00 9.9 24 Oeste 53 Oeste 0 879.2 -2.5 84
2019-11-03 01:00:00 10.5 31 Oeste 54 Oeste 0 880 -2.3 78
2019-11-03 00:00:00 10.5 23 Oeste 46 Sudoeste 0 880.7 -1.8 78
2019-11-02 23:00:00 10.8 18 Oeste 38 Oeste 0 881.7 -1.4 80
2019-11-02 22:00:00 11 18 Oeste 41 Oeste 0.2 882.3 -1.4 81
2019-11-02 21:00:00 11.1 25 Oeste 54 Oeste 0 882.5 -1.5 80
2019-11-02 20:00:00 11.9 19 Oeste 38 Oeste 0 883.1 -1.4 85
2019-11-02 19:00:00 12 13 Oeste 28 Oeste 0 883.7 -1.2 88
2019-11-02 18:00:00 13.4 18 Oeste 39 Oeste 0.2 884 -1.1 80
2019-11-02 17:00:00 14.2 17 Oeste 35 Oeste 0 884.5 -1.1 75
2019-11-02 16:00:00 14.8 18 Oeste 38 Oeste 0 884.9 -1.5 73
2019-11-02 15:00:00 14.4 17 Oeste 39 Oeste 0 885.1 -2.3 79
2019-11-02 14:00:00 14.5 21 Oeste 44 Oeste 0 885.6 -1.8 82
2019-11-02 13:00:00 14.1 23 Oeste 46 Sudoeste 0 886.4 -1.2 83
2019-11-02 12:00:00 13 18 Oeste 39 Oeste 0.4 887.4 -0.7 91
2019-11-02 11:00:00 13.8 21 Oeste 44 Oeste 0.6 887.4 -0.7 87
2019-11-02 10:00:00 13.5 22 Oeste 46 Oeste 0.4 887.6 -0.7 88
2019-11-02 09:00:00 12 16 Oeste 35 Oeste 0.4 888.1 -0.4 94
2019-11-02 08:00:00 11.9 18 Oeste 39 Oeste 0 888.1 -0.9 93
2019-11-02 07:00:00 11.8 17 Oeste 37 Sudoeste 0.4 888.3 -1.3 94
2019-11-02 06:00:00 12.1 21 Oeste 37 Oeste 0 888.5 -1.7 92
2019-11-02 05:00:00 12.1 10 Oeste 35 Sudoeste 0 889 -1.6 94
2019-11-02 04:00:00 12.2 21 Oeste 37 Sudoeste 0 889.6 -1.6 92
2019-11-02 03:00:00 12.2 14 Oeste 30 Oeste 0.6 890.2 -1.6 95
2019-11-02 02:00:00 12.4 14 Oeste 31 Oeste 0.2 890.6 -1.5 94
2019-11-02 01:00:00 12.6 18 Oeste 37 Oeste 0.4 891.2 -1.2 93
2019-11-02 00:00:00 12.9 15 Oeste 32 Sudoeste 0.4 891.8 -0.5 93
2019-11-01 23:00:00 13.3 12 Oeste 39 Oeste 0.6 892.1 -0.5 90
2019-11-01 22:00:00 13.7 12 Oeste 35 Oeste 0.2 892.4 -0.3 91
2019-11-01 21:00:00 14 14 Oeste 40 Oeste 0 892.3 -0.3 89
2019-11-01 20:00:00 14.2 12 Oeste 33 Oeste 0 892.6 -0.6 89
2019-11-01 19:00:00 14.4 17 Oeste 41 Oeste 1.4 892.7 -0.8 91
2019-11-01 18:00:00 15 16 Oeste 34 Sudoeste 0 892.6 -1.5 90
2019-11-01 17:00:00 15.4 19 Oeste 37 Sudoeste 0.4 893.2 -1.8 88
2019-11-01 16:00:00 15.8 15 Oeste 41 Sudoeste 0.2 893.5 -2.6 90
2019-11-01 15:00:00 15.7 15 Oeste 33 Sudoeste 0.4 894.1 -2.8 90
2019-11-01 14:00:00 15.8 10 Oeste 24 Oeste 0 895 -2 91
2019-11-01 13:00:00 15.7 17 Oeste 34 Oeste 0 896.1 -1 86
2019-11-01 12:00:00 15.8 15 Oeste 31 Sudoeste 0 896.9 -0.5 80
2019-11-01 11:00:00 15.7 14 Oeste 30 Oeste 0 897 -0.1 81
2019-11-01 10:00:00 14.8 10 Oeste 24 Noroeste 0 897.1 -0.1 88
2019-11-01 09:00:00 14.3 10 Oeste 29 Oeste 0 897.4 -0.1 91
2019-11-01 08:00:00 13.8 11 Oeste 25 Oeste 0 897.1 -0.5 91
2019-11-01 07:00:00 14.2 8 Oeste 19 Sudoeste 0 897.2 -0.7 91
2019-11-01 06:00:00 14.1 8 Oeste 19 Oeste 0 897.5 -1.1 93
2019-11-01 05:00:00 13.8 8 Oeste 19 Oeste 0 897.6 -1.2 94
2019-11-01 04:00:00 13.6 12 Oeste 21 Oeste 0 897.9 -1 94
2019-11-01 03:00:00 13.6 11 Oeste 19 Oeste 0 898.6 -0.9 92
2019-11-01 02:00:00 13.6 10 Oeste 26 Oeste 0 898.8 -1.1 89
2019-11-01 01:00:00 13.4 14 Oeste 27 Oeste 0 898.9 -0.9 87
2019-11-01 00:00:00 13.9 17 Oeste 25 Oeste 0 899.5 -0.6 85
2019-10-31 23:00:00 13.6 7 Oeste 19 Oeste 0 899.9 -0.2 84
2019-10-31 22:00:00 13.6 10 Oeste 19 Oeste 0 899.8 -0.3 82
2019-10-31 21:00:00 13.7 5 Sudoeste 10 Sur 0 900.1 0.3 78
2019-10-31 20:00:00 14.1 3 Oeste 18 Oeste 0 900.1 0.8 74
2019-10-31 19:00:00 14.7 10 Oeste 19 Oeste 0 900.1 1 70
2019-10-31 18:00:00 15.6 10 Noroeste 30 Noroeste 0 899.8 0.5 64
2019-10-31 17:00:00 17.7 9 Noroeste 28 Noroeste 0 899.3 -0.1 55
2019-10-31 16:00:00 18.6 14 Noroeste 33 Oeste 0 899.1 -0.8 51
2019-10-31 15:00:00 19.1 13 Noroeste 29 Noroeste 0 899.3 -1.2 51
2019-10-31 14:00:00 19.1 11 Noroeste 26 Noroeste 0 899.4 -1 49
2019-10-31 13:00:00 17.9 10 Noroeste 22 Noroeste 0 899.9 -0.4 54
2019-10-31 12:00:00 17.7 9 Noroeste 25 Oeste 0 900.5 0.7 54
2019-10-31 11:00:00 16.1 12 Noroeste 30 Oeste 0 900.4 1 61
2019-10-31 10:00:00 15.2 14 Noroeste 32 Oeste 0 900.3 1.4 69
2019-10-31 09:00:00 13.4 12 Oeste 19 Oeste 0 899.8 0.9 82
2019-10-31 08:00:00 11.9 7 Oeste 19 Oeste 0 899.4 0.7 90
2019-10-31 07:00:00 12.2 11 Oeste 23 Oeste 0 898.9 0.3 86
2019-10-31 06:00:00 12.4 13 Oeste 25 Oeste 0 898.9 0 87
2019-10-31 05:00:00 12.3 9 Oeste 17 Sudoeste 0 898.7 -0.2 91
2019-10-31 04:00:00 12.5 8 Oeste 20 Oeste 0 898.6 -0.6 91
2019-10-31 03:00:00 12.8 8 Oeste 20 Oeste 0 898.9 -0.6 94
2019-10-31 02:00:00 12.6 12 Oeste 17 Oeste 0 898.9 -0.6 94
2019-10-31 01:00:00 12.1 5 Sudoeste 19 Oeste 0 899.2 -0.5 96
2019-10-31 00:00:00 12.1 7 Sudoeste 19 Oeste 0 899.5 -0.2 92
2019-10-30 23:00:00 12.6 9 Oeste 18 Oeste 0 899.5 0.1 86
2019-10-30 22:00:00 12.9 8 Oeste 24 Oeste 0 899.7 0.5 86
2019-10-30 21:00:00 13.1 12 Oeste 22 Oeste 0 899.7 0.8 86
2019-10-30 20:00:00 13.3 11 Oeste 23 Oeste 0 899.4 0.8 88
2019-10-30 19:00:00 13.8 9 Oeste 24 Oeste 0 899.2 0.5 83
2019-10-30 18:00:00 14.3 13 Oeste 27 Oeste 0 898.9 0 81
2019-10-30 17:00:00 14.7 8 Oeste 25 Oeste 0 898.6 -0.5 80
2019-10-30 16:00:00 14.9 14 Oeste 28 Oeste 0 898.7 -0.7 78
2019-10-30 15:00:00 15.1 12 Oeste 26 Oeste 0 898.9 -1 77
2019-10-30 14:00:00 15 14 Oeste 28 Oeste 0 899.1 -0.9 78
2019-10-30 13:00:00 14.5 13 Oeste 24 Oeste 0 899.4 -0.6 83
2019-10-30 12:00:00 13.3 14 Oeste 22 Sudoeste 0 899.9 0.2 89
2019-10-30 11:00:00 12.8 8 Oeste 13 Sudoeste 0 900 1 91
2019-10-30 10:00:00 10.1 4 Oeste 8 Oeste 0 900 1.1 95
2019-10-30 09:00:00 7.4 2 Norte 4 Noroeste 0 899.7 1 94
2019-10-30 08:00:00 5.7 0 Calma 7 Este 0 899 0.4 96
2019-10-30 07:00:00 6 0 Calma 4 Nordeste 0 898.9 0.3 95
2019-10-30 06:00:00 6 0 Calma 3 Norte 0 898.7 -0.2 95
2019-10-30 05:00:00 6.2 0 Calma 4 Este 0 898.6 -0.4 94
2019-10-30 04:00:00 6.6 0 Calma 5 Nordeste 0 898.6 -0.4 93
2019-10-30 03:00:00 8.2 0 Calma 6 Norte 0 898.9 0.2 94
2019-10-30 02:00:00 8.8 0 Calma 4 Nordeste 0 899 0.2 95
2019-10-30 01:00:00 9 0 Calma 7 Norte 0 899 0.5 94
2019-10-30 00:00:00 9.1 0 Calma 5 Nordeste 0 898.7 0.4 91
2019-10-29 23:00:00 10.7 3 Oeste 9 Oeste 0 898.8 0.9 88
2019-10-29 22:00:00 11.6 5 Oeste 12 Oeste 0 898.5 1.4 86
2019-10-29 21:00:00 11.8 4 Sudoeste 17 Oeste 0 898.3 1.9 85
2019-10-29 20:00:00 13.2 10 Oeste 23 Oeste 0 897.9 1.6 79
2019-10-29 19:00:00 14.4 12 Oeste 25 Oeste 0 897.1 1.2 73
2019-10-29 18:00:00 16.1 8 Noroeste 26 Oeste 0 896.4 0.6 65
2019-10-29 17:00:00 18.6 15 Oeste 25 Oeste 0 896.3 0.4 57
2019-10-29 16:00:00 19 12 Oeste 27 Sudoeste 0 895.9 -0.6 57
2019-10-29 15:00:00 19.2 13 Oeste 28 Oeste 0 895.8 -0.7 58
2019-10-29 14:00:00 19.3 13 Oeste 26 Oeste 0 895.9 -0.6 58
2019-10-29 13:00:00 18.2 14 Oeste 25 Oeste 0 896.5 0.1 60
2019-10-29 12:00:00 18.4 9 Oeste 24 Oeste 0 896.5 0.5 61
2019-10-29 11:00:00 16.2 10 Oeste 18 Oeste 0 896.5 1.2 72
2019-10-29 10:00:00 12.3 2 Sudeste 5 Este 0 896.4 1.3 83
2019-10-29 09:00:00 7.9 2 Este 5 Este 0 896 1.1 95
2019-10-29 08:00:00 6.8 2 Este 5 Sudeste 0 895.3 0.7 91
2019-10-29 07:00:00 7.4 0 Calma 3 Sudeste 0 895.1 0.6 91
2019-10-29 06:00:00 8 0 Calma 3 Norte 0 894.9 0.1 89
2019-10-29 05:00:00 8.3 2 Norte 6 Este 0 894.6 -0.3 89
2019-10-29 04:00:00 8.1 0 Calma 4 Norte 0 894.5 -0.7 89
2019-10-29 03:00:00 8.7 0 Calma 5 Norte 0 894.8 -0.5 86
2019-10-29 02:00:00 9.3 2 Norte 7 Nordeste 0 894.9 -0.4 84
2019-10-29 01:00:00 9.8 0 Calma 5 Norte 0 895.2 0 82
2019-10-29 00:00:00 10.2 0 Calma 3 Norte 0 895.3 0.4 76
2019-10-28 23:00:00 11.4 0 Calma 3 Oeste 0 895.3 0.5 71
2019-10-28 22:00:00 12.8 2 Noroeste 10 Sudoeste 0 895.2 0.4 64
2019-10-28 21:00:00 13.9 5 Sudoeste 12 Oeste 0 894.9 0.4 59
2019-10-28 20:00:00 15.3 5 Oeste 10 Oeste 0 894.8 0.4 54
2019-10-28 19:00:00 16.7 7 Oeste 12 Oeste 0 894.8 0.1 47
2019-10-28 18:00:00 18.8 5 Sudoeste 12 Oeste 0 894.5 -0.4 40
2019-10-28 17:00:00 21 8 Sudoeste 19 Oeste 0 894.4 -0.9 35
2019-10-28 16:00:00 21.2 10 Sudoeste 22 Sudoeste 0 894.7 -1.2 34
2019-10-28 15:00:00 21.9 12 Oeste 21 Oeste 0 894.9 -1.5 36
2019-10-28 14:00:00 21.2 8 Oeste 19 Oeste 0 895.3 -1.3 38
2019-10-28 13:00:00 20.8 6 Sur 11 Sur 0 895.9 -0.7 50
2019-10-28 12:00:00 18 3 Sur 8 Sur 0 896.4 -0.2 58
2019-10-28 11:00:00 13.1 0 Calma 8 Este 0 896.6 0.5 80
2019-10-28 10:00:00 12.1 3 Norte 6 Norte 0 896.6 0.7 77
2019-10-28 09:00:00 10 0 Calma 9 Oeste 0 896.6 0.7 89
2019-10-28 08:00:00 9.8 3 Oeste 8 Oeste 0 896.1 -0.1 90
2019-10-28 07:00:00 9.6 2 Noroeste 8 Nordeste 0 895.9 -0.6 90
2019-10-28 06:00:00 9.8 2 Noroeste 9 Sudoeste 0 895.9 -1 89
2019-10-28 05:00:00 10.1 3 Nordeste 5 Nordeste 0 896.2 -1.1 89
2019-10-28 04:00:00 9.5 2 Sudeste 4 Sudeste 0 896.5 -1.1 90
2019-10-28 03:00:00 9.9 0 Calma 4 Nordeste 0 896.9 -0.6 89
2019-10-28 02:00:00 10.3 0 Calma 5 Norte 0 897.3 -0.5 87
2019-10-28 01:00:00 10.6 0 Calma 5 Noroeste 0 897.6 -0.2 85
2019-10-28 00:00:00 11.1 0 Calma 4 Noroeste 0 897.5 -0.5 83
2019-10-27 23:00:00 12.1 3 Norte 5 Noroeste 0 897.8 -0.1 80
2019-10-27 22:00:00 12.9 2 Norte 7 Este 0 897.8 0.3 77
2019-10-27 21:00:00 14.1 3 Noroeste 5 Noroeste 0 898 0.8 71
2019-10-27 20:00:00 15.2 3 Sudoeste 6 Sur 0 897.9 0.5 65
2019-10-27 19:00:00 15.9 0 Calma 4 Este 0 897.5 0 62
2019-10-27 18:00:00 17.4 3 Este 5 Este 0 897.2 -0.4 55
2019-10-27 17:00:00 18.6 3 Sur 8 Sur 0 897.4 -0.8 51
2019-10-27 16:00:00 19.5 4 Sur 12 Sur 0 897.5 -1.3 48
2019-10-27 15:00:00 20.4 6 Sur 13 Sur 0 897.6 -1.8 44
2019-10-27 14:00:00 20.7 4 Este 8 Sudeste 0 898.2 -1.6 45
2019-10-27 13:00:00 18.9 3 Sudeste 8 Sur 0 898.8 -1 51
2019-10-27 12:00:00 16.9 5 Sudeste 10 Sur 0 899.4 -0.1 59
2019-10-27 11:00:00 13.4 4 Este 9 Este 0 899.8 0.8 71
2019-10-27 10:00:00 10.2 4 Nordeste 6 Nordeste 0 899.8 1.3 80
2019-10-27 09:00:00 6.2 0 Calma 6 Norte 0 899.5 0.8 94
2019-10-27 08:00:00 4.6 0 Calma 6 Norte 0 899 0.3 94
2019-10-27 07:00:00 4.7 0 Calma 4 Nordeste 0 898.5 -0.3 92
2019-10-27 06:00:00 5.4 0 Calma 4 Norte 0 898.7 -0.3 92
2019-10-27 05:00:00 5.6 2 Norte 4 Noroeste 0 898.7 -0.5 91
2019-10-27 04:00:00 5.6 0 Calma 4 Norte 0 898.8 -0.7 90
2019-10-27 03:00:00 5.9 2 Sudeste 4 Sudeste 0 899 -0.6 89
2019-10-27 02:00:00 6.6 0 Calma 4 Sudeste 0 899.2 -0.3 88
2019-10-27 01:00:00 8 0 Calma 6 Este 0 899.6 0.6 83
2019-10-27 00:00:00 9.2 5 Este 8 Este 0 899.5 0.8 80
2019-10-26 23:00:00 10.7 3 Este 7 Este 0 899.5 1.3 72
2019-10-26 22:00:00 12.5 0 Calma 5 Norte 0 899 1.2 61
2019-10-26 21:00:00 14.7 4 Sudoeste 8 Sudoeste 0 898.7 1.2 51
2019-10-26 20:00:00 15.9 4 Sudoeste 6 Sudoeste 0 898.2 0.5 47
2019-10-26 19:00:00 18.8 4 Sudoeste 12 Oeste 0 897.8 -0.1 38
2019-10-26 18:00:00 21.3 7 Sudoeste 17 Sudoeste 0 897.5 -0.9 33
2019-10-26 17:00:00 22.2 6 Sudoeste 17 Sudeste 0 897.7 -1.4 31
2019-10-26 16:00:00 21.8 6 Sudoeste 17 Sur 0 897.9 -1.8 37
2019-10-26 15:00:00 21.2 7 Sudoeste 15 Oeste 0 898.4 -1.6 35
2019-10-26 14:00:00 19.8 8 Sur 12 Sur 0 899.1 -0.7 49
2019-10-26 13:00:00 17.9 4 Sur 8 Sur 0 899.7 0.2 56
2019-10-26 12:00:00 14.2 3 Sudoeste 8 Sudeste 0 900 1 67
2019-10-26 11:00:00 11 2 Norte 5 Oeste 0 899.8 1 76
2019-10-26 10:00:00 6.1 3 Norte 5 Noroeste 0 899.5 0.8 95
2019-10-26 09:00:00 3.8 2 Noroeste 4 Noroeste 0 899 0.2 96
2019-10-26 08:00:00 3.7 0 Calma 5 Este 0 898.8 0 94
2019-10-26 07:00:00 4.4 3 Noroeste 4 Noroeste 0 898.7 -0.4 95
2019-10-26 06:00:00 4.5 0 Calma 4 Nordeste 0 898.8 -0.5 95
2019-10-26 05:00:00 5.1 0 Calma 4 Norte 0 898.8 -0.9 91
2019-10-26 04:00:00 5.9 0 Calma 4 Norte 0 899.1 -0.6 92
2019-10-26 03:00:00 6.4 0 Calma 3 Sudeste 0 899.3 -0.6 91
2019-10-26 02:00:00 7.2 3 Norte 5 Nordeste 0 899.7 -0.2 89
2019-10-26 01:00:00 7.5 0 Calma 5 Este 0 899.7 0 88
2019-10-26 00:00:00 9.2 2 Norte 4 Norte 0 899.9 0.3 83
2019-10-25 23:00:00 10.5 4 Este 9 Este 0 899.9 0.5 77
2019-10-25 22:00:00 12.1 2 Noroeste 8 Norte 0 899.7 0.7 70
2019-10-25 21:00:00 13.2 3 Noroeste 5 Noroeste 0 899.6 0.6 65
2019-10-25 20:00:00 15.5 2 Sudoeste 10 Oeste 0 899.4 0.3 55
2019-10-25 19:00:00 18.5 5 Oeste 17 Sudoeste 0 899 -0.1 44
2019-10-25 18:00:00 20.7 9 Oeste 20 Oeste 0 899 -0.9 38
2019-10-25 17:00:00 21.1 10 Oeste 23 Oeste 0 899.1 -1.7 42
2019-10-25 16:00:00 20.6 5 Oeste 21 Sudoeste 0 899.1 -2.4 47
2019-10-25 15:00:00 19.3 7 Sudoeste 14 Sudoeste 0 899.9 -1.7 56
2019-10-25 14:00:00 16.8 4 Sudeste 10 Sudeste 0 900.8 -0.7 64
2019-10-25 13:00:00 13.1 4 Sudeste 10 Sur 0 901.5 0 79
2019-10-25 12:00:00 9.6 4 Sur 8 Oeste 0 901.6 0.6 91
2019-10-25 11:00:00 8.5 2 Sudoeste 7 Noroeste 0 901.5 0.7 96
2019-10-25 10:00:00 7.8 2 Norte 5 Noroeste 0 901.5 0.8 94
2019-10-25 09:00:00 7.2 0 Calma 6 Sudeste 0 901 0.6 94
2019-10-25 08:00:00 7.6 5 Este 8 Sudeste 0 900.8 0.4 91
2019-10-25 07:00:00 9.1 5 Oeste 14 Noroeste 0 900.7 0 92
2019-10-25 06:00:00 9.1 7 Oeste 14 Oeste 0 900.4 -0.2 92
2019-10-25 05:00:00 9.2 4 Norte 17 Noroeste 0 900.4 0 91
2019-10-25 04:00:00 9.2 4 Oeste 15 Oeste 0 900.7 0.3 93
2019-10-25 03:00:00 8.6 5 Oeste 17 Oeste 0 900.6 0.6 95
2019-10-25 02:00:00 8.2 4 Noroeste 12 Oeste 0 900.4 0.7 95
2019-10-25 01:00:00 7.8 2 Sudoeste 7 Este 0 900.4 1.1 94
2019-10-25 00:00:00 8.8 4 Sudoeste 13 Oeste 0 900 1.1 92
2019-10-24 23:00:00 9 8 Oeste 21 Oeste 0 899.7 1.4 91
2019-10-24 22:00:00 9.1 10 Oeste 22 Oeste 0 899.3 1.9 90
2019-10-24 21:00:00 9.2 15 Oeste 28 Oeste 0 898.9 2.3 87
2019-10-24 20:00:00 9.6 17 Oeste 32 Oeste 0 898.3 2.3 83
2019-10-24 19:00:00 9.7 19 Oeste 36 Oeste 0 897.4 1.8 81
2019-10-24 18:00:00 12 16 Oeste 38 Oeste 0 896.6 1.2 70
2019-10-24 17:00:00 12.7 23 Oeste 40 Oeste 0 896 0.8 65
2019-10-24 16:00:00 11.9 16 Oeste 39 Oeste 0 895.6 0.3 66
2019-10-24 15:00:00 12.6 17 Oeste 33 Oeste 0 895.4 0.5 61
2019-10-24 14:00:00 11.5 15 Oeste 31 Noroeste 0 895.2 1.3 63
2019-10-24 13:00:00 9.9 14 Oeste 29 Oeste 0 895.3 2.1 67
2019-10-24 12:00:00 8.8 15 Oeste 31 Noroeste 0 894.9 2.7 71
2019-10-24 11:00:00 8.3 12 Noroeste 32 Oeste 0 893.9 2.6 76
2019-10-24 10:00:00 6.8 8 Noroeste 23 Norte 0 893.2 2.6 86
2019-10-24 09:00:00 5.8 12 Oeste 23 Oeste 0 892.2 2.4 89
2019-10-24 08:00:00 5.8 8 Oeste 19 Oeste 0 891.3 2 90
2019-10-24 07:00:00 6.1 9 Oeste 22 Oeste 0 890.6 1.8 92
2019-10-24 06:00:00 6.8 10 Oeste 27 Oeste 0 889.8 1.1 92
2019-10-24 05:00:00 6.9 10 Oeste 18 Oeste 0.2 889.3 1 89
2019-10-24 04:00:00 7 8 Oeste 25 Oeste 0 888.8 0.6 97
2019-10-24 03:00:00 7.2 14 Oeste 25 Oeste 0.2 888.7 0.9 96
2019-10-24 02:00:00 7.4 5 Sudoeste 9 Sudoeste 0.2 888.3 1 97
2019-10-24 01:00:00 7.2 6 Sudoeste 10 Sudoeste 0.4 888.2 1.6 96
2019-10-24 00:00:00 7.1 5 Sudoeste 10 Sudoeste 0 887.8 1.3 94
2019-10-23 23:00:00 7.4 6 Sudoeste 17 Oeste 0.4 887.3 1.6 91
2019-10-23 22:00:00 8 6 Sudoeste 13 Sudoeste 0 886.6 1.7 83
2019-10-23 21:00:00 8.3 5 Sudoeste 9 Oeste 0 886.5 1.8 81
2019-10-23 20:00:00 8.3 5 Sudoeste 10 Sudoeste 0 885.7 0.9 83
2019-10-23 19:00:00 8.5 9 Sudoeste 17 Sur 0 884.9 0.6 80
2019-10-23 18:00:00 8.8 7 Sudoeste 15 Sudoeste 0 884.7 0.3 80
2019-10-23 17:00:00 9 9 Sudoeste 20 Sudoeste 0 884.8 0.6 81
2019-10-23 16:00:00 9 12 Sur 20 Sudoeste 0 884.3 0.2 84
2019-10-23 15:00:00 9.1 10 Sudoeste 21 Sudoeste 0 884.4 0.8 88
2019-10-23 14:00:00 8.9 8 Sudoeste 14 Sudoeste 0.2 884.2 0.2 92
2019-10-23 13:00:00 8.6 8 Sudoeste 13 Sudoeste 0 884.1 0 90
2019-10-23 12:00:00 9.1 8 Sur 15 Sudoeste 0 883.6 0.5 86
2019-10-23 11:00:00 8.9 3 Sudeste 12 Nordeste 0 884 1.2 84
2019-10-23 10:00:00 7.6 6 Nordeste 15 Norte 1 884.1 1.4 99
2019-10-23 09:00:00 6.7 3 Norte 8 Este 4.2 883.1 0.3 98
2019-10-23 08:00:00 6.6 4 Norte 8 Nordeste 1.4 882.8 0.4 98
2019-10-23 07:00:00 6.4 3 Sudoeste 9 Sur 0.4 882.7 0 97
2019-10-23 06:00:00 6.5 8 Sur 15 Sudoeste 1.4 882.8 -0.2 96
2019-10-23 05:00:00 7.6 6 Este 19 Este 0.4 882.4 -1.2 96
2019-10-23 04:00:00 7.5 7 Nordeste 18 Nordeste 0.8 882.7 -2.4 96
2019-10-23 03:00:00 7.7 11 Nordeste 22 Norte 0 883 -2.4 90
2019-10-23 02:00:00 7.4 6 Norte 17 Nordeste 0 883.6 -1.8 86
2019-10-23 01:00:00 7.3 8 Nordeste 22 Nordeste 0 885.1 -1.1 84
2019-10-23 00:00:00 7.4 9 Nordeste 30 Nordeste 0 885.4 -0.6 80
2019-10-22 23:00:00 7.4 14 Nordeste 27 Nordeste 0 885.4 -0.7 78
2019-10-22 22:00:00 6.6 14 Nordeste 30 Norte 0 886.2 -0.4 82
2019-10-22 21:00:00 7.3 11 Norte 27 Nordeste 0 886 -0.7 76
2019-10-22 20:00:00 7.4 9 Norte 24 Nordeste 0 886.1 -1.4 74
2019-10-22 19:00:00 7.5 10 Norte 29 Nordeste 0 886.6 -2.2 74
2019-10-22 18:00:00 7.5 16 Norte 35 Norte 0 886.7 -3.4 80
2019-10-22 17:00:00 7.2 11 Norte 35 Norte 0.2 887.5 -3.7 82
2019-10-22 16:00:00 7.2 14 Norte 29 Norte 0.4 888.8 -3.6 84
2019-10-22 15:00:00 7.2 9 Norte 24 Nordeste 0.8 890.1 -3 86
2019-10-22 14:00:00 7.3 11 Nordeste 21 Nordeste 0.6 891.2 -1.3 85
2019-10-22 13:00:00 7.9 7 Nordeste 18 Nordeste 0 892.4 -0.8 78
2019-10-22 12:00:00 7.9 14 Nordeste 25 Nordeste 0 893.1 0.2 72
2019-10-22 11:00:00 7.6 10 Nordeste 22 Nordeste 0 892.5 -0.5 75
2019-10-22 10:00:00 6.7 6 Nordeste 11 Nordeste 0 893.2 -0.6 81
2019-10-22 09:00:00 5.7 6 Nordeste 13 Nordeste 0 892.9 -1.2 85
2019-10-22 08:00:00 5.5 8 Nordeste 17 Nordeste 0 893 -1.7 83
2019-10-22 07:00:00 5.1 8 Norte 15 Nordeste 0 893.8 -1.2 83
2019-10-22 06:00:00 4 5 Nordeste 12 Nordeste 0 894.1 -1.2 88
2019-10-22 05:00:00 3.8 5 Nordeste 11 Nordeste 0 894.7 -0.8 88
2019-10-22 04:00:00 2.8 3 Este 10 Nordeste 0 895 -0.7 90
2019-10-22 03:00:00 2.4 2 Este 6 Nordeste 0 895.3 -0.3 92
2019-10-22 02:00:00 2.9 3 Este 8 Este 0 895.5 -0.6 89
2019-10-22 01:00:00 3.6 0 Calma 6 Este 0 895.7 -0.2 88
2019-10-22 00:00:00 4.9 6 Nordeste 11 Nordeste 0 895.6 0.1 85
2019-10-21 23:00:00 5.7 5 Nordeste 10 Norte 0 896.1 1 84
2019-10-21 22:00:00 6.4 5 Nordeste 11 Nordeste 0 895.9 1.5 83
2019-10-21 21:00:00 6.7 5 Nordeste 10 Nordeste 0 895.5 1.5 79
2019-10-21 20:00:00 8 5 Este 14 Sudeste 0 895.1 1.1 74
2019-10-21 19:00:00 10.2 8 Sudeste 20 Este 0 894.4 0.3 62
2019-10-21 18:00:00 12.7 6 Este 15 Sudeste 0 894 -0.4 43
2019-10-21 17:00:00 12.7 6 Sudeste 15 Sudeste 0 894 -0.7 44
2019-10-21 16:00:00 12.5 6 Sur 17 Sur 0 894.1 -0.9 48
2019-10-21 15:00:00 12.1 8 Sur 17 Sur 0 894.4 -0.5 50
2019-10-21 14:00:00 11.1 3 Sudeste 15 Sudoeste 0 894.7 -0.4 54
2019-10-21 13:00:00 10.8 6 Sur 14 Sur 0 895 0.3 60
2019-10-21 12:00:00 9.3 3 Sur 8 Noroeste 0 894.9 0.7 69
2019-10-21 11:00:00 6.8 2 Noroeste 9 Norte 0 895.1 1.2 78
2019-10-21 10:00:00 3.6 3 Noroeste 12 Noroeste 0 894.7 0.9 93
2019-10-21 09:00:00 2.1 3 Norte 9 Norte 0 894.2 0.9 96
2019-10-21 08:00:00 1.9 4 Norte 11 Norte 0 893.9 1 97
2019-10-21 07:00:00 1.6 3 Noroeste 4 Norte 0 893.8 0.9 96
2019-10-21 06:00:00 2.3 2 Norte 6 Norte 0 893.3 0.5 96
2019-10-21 05:00:00 2.7 0 Calma 10 Nordeste 0 892.9 0.3 94
2019-10-21 04:00:00 3.2 3 Norte 9 Noroeste 0 892.9 0.4 93
2019-10-21 03:00:00 4.1 3 Norte 9 Noroeste 0 892.8 0.9 91
2019-10-21 02:00:00 5.1 3 Sudoeste 12 Noroeste 0 892.6 1 93
2019-10-21 01:00:00 5.6 6 Sudoeste 10 Sur 0 892.5 1.7 95
2019-10-21 00:00:00 6.2 0 Calma 6 Este 0.4 891.9 1.8 91
2019-10-20 23:00:00 6.8 0 Calma 9 Nordeste 0.4 891.6 2.3 88
2019-10-20 22:00:00 7.3 4 Nordeste 9 Sudoeste 0 890.8 2.5 86
2019-10-20 21:00:00 7.3 5 Oeste 22 Oeste 0 890.1 2.6 91
2019-10-20 20:00:00 8.2 6 Oeste 23 Oeste 0 889.3 2.3 81
2019-10-20 19:00:00 9.1 7 Oeste 18 Norte 0 888.3 1.8 78
2019-10-20 18:00:00 9.4 8 Noroeste 22 Oeste 0 887.5 1.3 82
2019-10-20 17:00:00 8.7 9 Sur 21 Sur 0.6 887 0.8 87
2019-10-20 16:00:00 10 11 Oeste 24 Oeste 0 886.5 0.1 73
2019-10-20 15:00:00 10.2 14 Oeste 29 Oeste 0 886.2 0.2 70
2019-10-20 14:00:00 10.4 12 Oeste 21 Noroeste 0 886.2 0.4 69
2019-10-20 13:00:00 9.7 11 Sudoeste 26 Oeste 0 886.4 1 74
2019-10-20 12:00:00 10.8 17 Oeste 30 Oeste 0 886 1.4 67
2019-10-20 11:00:00 8.6 13 Oeste 23 Oeste 0 885.8 1.7 82
2019-10-20 10:00:00 7.2 9 Oeste 23 Oeste 0 885.4 1.7 91
2019-10-20 09:00:00 7 12 Oeste 20 Oeste 0 884.6 1.7 90
2019-10-20 08:00:00 7.4 7 Oeste 17 Oeste 0 884.1 1.6 92
2019-10-20 07:00:00 7.7 9 Oeste 23 Oeste 0 883.7 1.8 92
2019-10-20 06:00:00 8.3 13 Oeste 25 Oeste 0.2 882.9 0.7 92
2019-10-20 05:00:00 9.2 11 Oeste 35 Sudoeste 0.4 882.5 -0.4 92
2019-10-20 04:00:00 10 14 Sur 28 Sur 0 881.9 -1.3 94
2019-10-20 03:00:00 10.4 11 Sur 22 Sudeste 0.6 882.2 -1.6 94
2019-10-20 02:00:00 10.4 15 Sur 26 Sur 1.4 882.9 -1 96
2019-10-20 01:00:00 10.1 6 Sudeste 18 Noroeste 5 883.2 -0.5 95
2019-10-20 00:00:00 10.7 7 Sudoeste 14 Sudoeste 4.4 883.8 -0.3 91
2019-10-19 23:00:00 11.6 4 Sudoeste 21 Sudoeste 0.2 883.9 -0.4 90
2019-10-19 22:00:00 12.1 13 Sudoeste 31 Sudoeste 0 883.7 -1 83
2019-10-19 21:00:00 12.1 17 Sur 33 Sur 0 884.1 -1 83
2019-10-19 20:00:00 12.2 13 Sur 28 Sudoeste 0 884.3 -1 79
2019-10-19 19:00:00 12.7 17 Sur 39 Sudoeste 0 884.7 -1.2 73
2019-10-19 18:00:00 13.6 21 Sudoeste 40 Sudoeste 0 885.1 -1.3 67
2019-10-19 17:00:00 14.7 18 Sudoeste 31 Sudoeste 0 885.3 -1.8 58
2019-10-19 16:00:00 14 15 Sur 35 Sur 0 885.9 -1.8 61
2019-10-19 15:00:00 13.3 19 Sur 33 Sudoeste 0 886.4 -1.5 65
2019-10-19 14:00:00 12.4 15 Sudoeste 32 Sudoeste 0 887.1 -1.2 71
2019-10-19 13:00:00 11.7 13 Sur 28 Sudoeste 0 887.7 -0.9 72
2019-10-19 12:00:00 11.7 15 Sur 25 Sur 0 887.9 -0.7 72
2019-10-19 11:00:00 10.8 12 Sudoeste 22 Sudoeste 0 888.3 -0.2 81
2019-10-19 10:00:00 10.1 10 Sudoeste 19 Oeste 0 888.6 -0.1 89
2019-10-19 09:00:00 9.7 7 Sudoeste 13 Sudoeste 0 888.6 -0.6 92
2019-10-19 08:00:00 9.7 6 Sudoeste 12 Sur 0 888.5 -0.5 93
2019-10-19 07:00:00 10.2 6 Sudoeste 10 Oeste 0 888.7 -0.9 89
2019-10-19 06:00:00 10.6 6 Sudoeste 10 Oeste 0 889.2 -0.8 90
2019-10-19 05:00:00 10.8 5 Sudoeste 13 Oeste 0 889 -1.5 92
2019-10-19 04:00:00 11 7 Sudoeste 12 Oeste 0 889.6 -1 92
2019-10-19 03:00:00 11 4 Sudoeste 8 Sur 0 890 -1.1 91
2019-10-19 02:00:00 11 5 Sudoeste 12 Oeste 0 890.5 -1 91
2019-10-19 01:00:00 10.9 4 Sudoeste 8 Sur 0 890.6 -1 90
2019-10-19 00:00:00 11.6 5 Sudoeste 14 Oeste 0 891.1 -0.7 87
2019-10-18 23:00:00 12.4 9 Oeste 16 Oeste 0 891.5 -0.3 85
2019-10-18 22:00:00 13 7 Oeste 12 Oeste 0 891.6 -0.1 81
2019-10-18 21:00:00 13.6 6 Oeste 12 Oeste 0 891.8 -0.5 78
2019-10-18 20:00:00 14.2 8 Oeste 14 Oeste 0 891.8 -1 74
2019-10-18 19:00:00 15.1 7 Oeste 18 Oeste 0 891.7 -1.5 69
2019-10-18 18:00:00 16.4 12 Oeste 26 Oeste 0 892.3 -1.3 64
2019-10-18 17:00:00 17.2 14 Oeste 32 Sudoeste 0 892.8 -1.4 61
2019-10-18 16:00:00 16.5 15 Oeste 32 Noroeste 0 893.2 -1.5 66
2019-10-18 15:00:00 16.2 16 Oeste 32 Oeste 0 893.6 -1.1 71
2019-10-18 14:00:00 14 14 Oeste 26 Oeste 0 894.2 -0.5 87
2019-10-18 13:00:00 13.5 11 Oeste 22 Oeste 0 894.7 -0.2 89
2019-10-18 12:00:00 12.8 12 Oeste 28 Noroeste 0 894.7 0.6 90
2019-10-18 11:00:00 12.5 11 Oeste 19 Oeste 0.8 894.7 1 92
2019-10-18 10:00:00 12 6 Oeste 14 Sudoeste 0.4 894.9 1 97
2019-10-18 09:00:00 12 7 Sudoeste 13 Sudoeste 0.2 894.1 0.7 97
2019-10-18 08:00:00 12.4 5 Sudoeste 20 Oeste 0.4 893.7 0.1 94
2019-10-18 07:00:00 12.6 14 Sudoeste 26 Sudoeste 0.8 893.9 0 95
2019-10-18 06:00:00 12.2 11 Sudoeste 25 Sudoeste 2.2 893.4 -1.1 96
2019-10-18 05:00:00 11.8 5 Sudoeste 17 Sudoeste 1 893.6 -1.2 97
2019-10-18 04:00:00 12.1 9 Sudoeste 23 Sur 0 893.9 -1.2 95
2019-10-18 03:00:00 11.8 11 Sudoeste 22 Sudoeste 0.6 894.5 -1.1 97
2019-10-18 02:00:00 11.4 7 Sudoeste 17 Sudoeste 0.4 894.8 -0.8 96
2019-10-18 01:00:00 11.1 9 Sur 19 Sur 0 895.1 -0.3 94
2019-10-18 00:00:00 10.9 4 Sudoeste 17 Sudoeste 0 895.6 0.3 94